Terminal Aerodrome Forecast
Issued by NWS Louisville, KY

Home | Current Version | Previous Version | Text Only | Print | Product List | Glossary On
Versions: 1 2 3 4 5 6 7 8 9 10 11 12
000
FTUS43 KLMK 251120
TAFSDF
TAF
KSDF 251120Z 2512/2618 19008KT P6SM VCSH SCT070 BKN100
     FM251700 20010G17KT P6SM SCT060 BKN250
     FM252300 18007KT P6SM BKN100=

USA.gov is the U.S. government's official web portal to all federal, state and local government web resources and services.